• Join FlightAware (Why Join?)
  • Login
  • US Flag 
01:51PM EDT


 

Airport Tracker/Info


-or-


 

Live Flight TrackerFlight Track Log ✈ N789EX ✈ 14-May-2014 ✈ KMWH - KBFI

Flight Track Log - Related Links

Times and Time Zones

All times are in EDT time to prevent confusion due to time zone crossing. See the N789EX flight status page for this flight to view local times or setup timezone preferences in your user account.

Time Position Orientation Groundspeed Altitude Reporting Facility
EDT Latitude Longitude Course Direction KTS MPH feet Rate Location/Type
02:56PM 47.3347 -119.2603 359° North 255 293 11,000  Level Seattle Center
02:57PM 47.4119 -119.2631 359° North 278 320 14,500 1,980 Climbing Seattle Center
02:58PM 47.4933 -119.2611 North 294 338 15,100 240 Climbing Seattle Center
02:59PM 47.5781 -119.2603 360° North 279 321 15,000 -60 Descending Seattle Center
03:00PM 47.6411 -119.2608 360° North 229 264 15,000 -600 Level Seattle Center
03:01PM 47.7025 -119.2667 356° North 224 258 13,900 -960 Descending Seattle Center
03:02PM 47.7647 -119.2736 356° North 206 237 13,100 -660 Descending Seattle Center
03:03PM 47.8239 -119.2831 354° North 217 250 12,600 840 Descending Seattle Center
03:04PM 47.8881 -119.2917 355° North 230 265 14,900 1,140 Climbing Seattle Center
03:05PM 47.9514 -119.3036 353° North 231 266 15,000  Climbing Seattle Center
03:06PM 47.9744 -119.2333 64° Northeast 233 268 15,000 -480 Level Seattle Center
03:07PM 47.9397 -119.1667 128° Southeast 208 239 14,100 -960 Descending Seattle Center
03:08PM 47.9053 -119.1036 129° Southeast 194 223 13,100 -780 Descending Seattle Center
03:09PM 47.8711 -119.0417 129° Southeast 193 222 12,600 900 Descending Seattle Center
03:10PM 47.8331 -118.9642 126° Southeast 214 246 15,000 660 Climbing Seattle Center
03:11PM 47.8008 -118.8944 125° Southeast 209 241 14,000 -1,200 Descending Seattle Center
03:12PM 47.7725 -118.8283 123° Southeast 191 220 12,600  Descending Seattle Center
03:13PM 47.7289 -118.8089 163° South 199 229 14,100 1,080 Climbing Seattle Center
03:14PM 47.7203 -118.8864 261° West 177 204 14,900 -600 Climbing Seattle Center
03:15PM 47.7136 -118.9469 261° West 153 176 13,000 -1,740 Descending Seattle Center
03:16PM 47.7061 -119.0042 259° West 142 163 11,400 -660 Descending Seattle Center
03:17PM 47.6981 -119.0753 260° West 164 189 11,700 1,140 Climbing Seattle Center
03:18PM 47.6883 -119.1411 258° West 165 190 13,800 1,860 Climbing Seattle Center
03:19PM 47.6769 -119.2064 255° West 165 190 15,600 480 Climbing Seattle Center
03:21PM 47.6664 -119.2758 257° West 169 194 14,900 -360 Descending Seattle Center
03:22PM 47.6550 -119.3453 256° West 166 191 14,900  Level Seattle Center
03:23PM 47.6447 -119.4111 257° West 164 189 14,900  Level Seattle Center
03:24PM 47.6342 -119.4817 258° West 172 198 15,000  Climbing Seattle Center
03:25PM 47.6200 -119.5844 258° West 249 287 14,900 -60 Descending Seattle Center
03:26PM 47.6069 -119.6900 260° West 243 280 14,900  Level Seattle Center
03:27PM 47.5947 -119.7894 260° West 247 284 14,900  Level Seattle Center
03:28PM 47.6056 -119.8914 279° West 258 297 14,900 -60 Level Seattle Center
03:33PM 47.7418 -120.3430 297° West 249 287 14,600 -60 Descending FlightAware ADS-B
03:33PM 47.7497 -120.3580 309° West 250 288 14,600  Level FlightAware ADS-B
03:33PM 47.7581 -120.3650 334° Northwest 253 291 14,600 180 Level FlightAware ADS-B
03:34PM 47.7780 -120.3650 14° North 262 302 14,700 120 Climbing FlightAware ADS-B
03:34PM 47.8015 -120.3280 60° Northeast 283 326 14,700 -120 Level FlightAware ADS-B
03:35PM 47.8244 -120.2640 60° Northeast 283 326 14,600 -120 Descending FlightAware ADS-B
03:35PM 47.8445 -120.2080 61° Northeast 309 356 14,600 240 Level FlightAware ADS-B
03:36PM 47.8608 -120.1586 61° Northeast 295 339 14,900 180 Climbing Seattle Center
03:37PM 47.9044 -120.0422 61° Northeast 312 359 14,900  Level Seattle Center
03:38PM 47.9522 -119.9194 60° Northeast 314 361 14,900  Level Seattle Center
03:39PM 47.9561 -119.7928 87° East 329 379 14,900  Level Seattle Center
03:40PM 47.9258 -119.6658 110° East 328 377 14,900  Level Seattle Center
03:41PM 47.8956 -119.5381 109° East 327 376 14,900  Level Seattle Center
03:42PM 47.8639 -119.4008 109° East 327 376 14,900  Level Seattle Center
03:43PM 47.8339 -119.2731 109° East 327 376 14,900  Level Seattle Center
03:44PM 47.8036 -119.1450 109° East 327 376 15,000  Climbing Seattle Center
03:45PM 47.7731 -119.0100 109° East 341 392 15,000  Level Seattle Center
03:46PM 47.7397 -118.8767 110° East 342 394 15,000  Level Seattle Center
03:47PM 47.7072 -118.7333 109° East 342 394 15,000  Level Seattle Center
03:48PM 47.6767 -118.6003 109° East 342 394 15,000  Level Seattle Center
03:49PM 47.7406 -118.5247 38° Northeast 305 351 15,100 420 Climbing Seattle Center
03:50PM 47.7244 -118.3992 101° East 338 389 15,900 780 Climbing Seattle Center
03:51PM 47.6997 -118.2489 104° East 346 398 16,800 840 Climbing Seattle Center
03:52PM 47.6889 -118.1061 96° East 347 399 17,700 1,320 Climbing Seattle Center
03:53PM 47.6792 -117.9814 97° East 357 411 19,600 2,280 Climbing Seattle Center
03:54PM 47.6664 -117.8275 97° East 374 430 22,400 2,640 Climbing Seattle Center
03:55PM 47.6486 -117.6372 98° East 387 445 25,000 1,260 Climbing Seattle Center
03:56PM 47.6347 -117.4722 97° East 402 463 25,000  Level Seattle Center
03:57PM 47.6200 -117.3081 98° East 401 461 25,000  Level Seattle Center
03:58PM 47.6067 -117.1400 97° East 401 461 25,100  Climbing Seattle Center
03:59PM 47.5961 -116.9639 95° East 409 471 25,000 -120 Descending Seattle Center
04:00PM 47.5817 -116.7986 97° East 408 470 24,900  Descending Seattle Center
04:01PM 47.5567 -116.6367 103° East 407 468 25,000 660 Climbing Seattle Center
04:02PM 47.5386 -116.4697 99° East 409 471 26,300 1,680 Climbing Seattle Center
04:03PM 47.5236 -116.2897 97° East 433 498 28,500 1,440 Climbing Seattle Center
04:04PM 47.5050 -116.1042 98° East 453 521 29,300 1,020 Climbing Seattle Center
04:05PM 47.4481 -115.9186 114° Southeast 520 598 30,600 1,260 Climbing Seattle Center
04:06PM 47.3119 -115.8800 169° South 514 592 31,900 1,260 Climbing Seattle Center
04:07PM 47.2172 -116.0178 225° Southwest 502 578 33,200 1,620 Climbing Seattle Center
04:08PM 47.2219 -116.2006 272° West 460 529 35,200 1,800 Climbing Seattle Center
04:09PM 47.3072 -116.3194 317° Northwest 432 497 36,900 840 Climbing Seattle Center
04:10PM 47.4181 -116.4456 322° Northwest 424 488 37,000  Climbing Seattle Center
04:11PM 47.5083 -116.5489 322° Northwest 418 481 37,000  Level Seattle Center
04:12PM 47.5553 -116.7017 295° West 420 483 37,000 -60 Level Seattle Center
04:13PM 47.5653 -116.8800 275° West 429 494 36,900 -180 Descending Seattle Center
04:15PM 47.5714 -117.0633 273° West 434 499 36,700  Descending Seattle Center
04:16PM 47.5831 -117.2553 275° West 434 499 36,900 -780 Climbing Seattle Center
04:28PM 47.7582 -119.4400 275° West 421 484 27,000 -960 Descending FlightAware ADS-B
04:29PM 47.7683 -119.6050 275° West 406 467 24,500 -2,040 Descending FlightAware ADS-B
04:29PM 47.7737 -119.6920 275° West 412 474 24,000 -420 Descending FlightAware ADS-B
04:30PM 47.7820 -119.8270 275° West 413 475 24,000  Level FlightAware ADS-B
04:31PM 47.7882 -119.9330 275° West 413 475 24,000  Level FlightAware ADS-B
04:31PM 47.7933 -120.0230 275° West 435 501 24,000  Level FlightAware ADS-B
04:32PM 47.7985 -120.1170 275° West 436 502 24,000  Level FlightAware ADS-B
04:32PM 47.8045 -120.2230 275° West 435 501 24,000  Level FlightAware ADS-B
04:32PM 47.8053 -120.2375 275° West 436 502 24,000  Level FlightAware ADS-B
04:33PM 47.8095 -120.3130 275° West 434 499 24,000  Level FlightAware ADS-B
04:33PM 47.8143 -120.4030 275° West 435 501 24,000  Level FlightAware ADS-B
04:33PM 47.8146 -120.4077 275° West 435 501 24,000  Level FlightAware ADS-B (CYVR)
04:34PM 47.8191 -120.4920 275° West 427 491 24,000 -480 Level FlightAware ADS-B
04:34PM 47.8233 -120.5720 275° West 405 466 23,600 -960 Descending FlightAware ADS-B
04:34PM 47.8168 -120.4500 275° West 401 461 23,500 -1,980 Descending FlightAware ADS-B (CYWH)
04:35PM 47.8277 -120.6540 275° West 391 450 22,600 -2,100 Descending FlightAware ADS-B
04:35PM 47.8297 -120.6906 275° West 389 448 22,200 -1,800 Descending FlightAware ADS-B
04:35PM 47.8320 -120.7350 274° West 387 445 21,700 -1,860 Descending FlightAware ADS-B
04:36PM 47.8354 -120.8022 274° West 384 442 20,900 -2,040 Descending FlightAware ADS-B
04:36PM 47.8360 -120.8150 274° West 384 442 20,700 -1,920 Descending FlightAware ADS-B
04:36PM 47.8399 -120.8950 274° West 382 440 19,700 -2,040 Descending FlightAware ADS-B
04:36PM 47.8404 -120.9066 274° West 381 438 19,600 -1,620 Descending FlightAware ADS-B
04:37PM 47.8437 -120.9750 274° West 383 441 18,900 -1,560 Descending FlightAware ADS-B
04:37PM 47.8455 -121.0107 274° West 380 437 18,500 -1,800 Descending FlightAware ADS-B (CYWH)
04:37PM 47.8476 -121.0530 274° West 377 434 18,000 -2,040 Descending FlightAware ADS-B
04:38PM 47.8500 -121.1046 274° West 383 441 17,300 -2,160 Descending FlightAware ADS-B (CYVR)
04:38PM 47.8513 -121.1310 274° West 375 432 16,900 -2,280 Descending FlightAware ADS-B
04:38PM 47.8549 -121.2080 274° West 375 432 15,800 -2,220 Descending FlightAware ADS-B
04:38PM 47.8500 -121.1046 275° West 375 432 15,700 -2,400 Descending FlightAware ADS-B (CYVR)
04:39PM 47.8600 -121.2860 276° West 373 429 14,600 -2,460 Descending FlightAware ADS-B
04:39PM 47.8557 -121.2220 276° West 370 426 14,200 -2,100 Descending FlightAware ADS-B
04:39PM 47.8651 -121.3570 276° West 366 421 13,600 -2,280 Descending FlightAware ADS-B
04:40PM 47.8660 -121.3707 275° West 362 417 12,900 -2,220 Descending FlightAware ADS-B
04:40PM 47.8698 -121.4320 275° West 358 412 12,500 -2,460 Descending FlightAware ADS-B
04:40PM 47.8700 -121.4359 275° West 356 410 11,600 -2,040 Descending FlightAware ADS-B
04:40PM 47.8744 -121.5060 276° West 352 405 11,500 -600 Descending FlightAware ADS-B
04:41PM 47.8768 -121.5447 275° West 333 383 11,300 -600 Descending FlightAware ADS-B
04:41PM 47.8788 -121.5770 275° West 324 373 11,200 -600 Descending FlightAware ADS-B
04:41PM 47.8829 -121.6440 275° West 298 343 10,900 -480 Descending FlightAware ADS-B
04:42PM 47.8840 -121.6640 275° West 292 336 10,900 -420 Level FlightAware ADS-B
04:42PM 47.8842 -121.6730 270° West 292 336 10,800 -600 Descending FlightAware ADS-B
04:42PM 47.8835 -121.6840 263° West 292 336 10,800 -720 Level FlightAware ADS-B
04:42PM 47.8826 -121.6910 257° West 292 336 10,700 -780 Descending FlightAware ADS-B
04:42PM 47.8809 -121.6990 252° West 293 337 10,700  Level FlightAware ADS-B
04:42PM 47.8790 -121.7050 246° West 294 338 10,700 -780 Level FlightAware ADS-B
04:42PM 47.8764 -121.7130 241° Southwest 295 339 10,600 -1,200 Descending FlightAware ADS-B
04:42PM 47.8723 -121.7220 233° Southwest 295 339 10,500 -900 Descending FlightAware ADS-B
04:42PM 47.8732 -121.7201 231° Southwest 296 341 10,500 -2,040 Level FlightAware ADS-B (CYVR)
04:42PM 47.8693 -121.7270 228° Southwest 295 339 10,400 -1,740 Descending FlightAware ADS-B
04:42PM 47.8634 -121.7350 222° Southwest 294 338 10,300 -600 Descending FlightAware ADS-B
04:42PM 47.8597 -121.7390 216° Southwest 292 336 10,300 -720 Level FlightAware ADS-B
04:42PM 47.8538 -121.7440 207° Southwest 291 335 10,200 -1,200 Descending FlightAware ADS-B
04:42PM 47.8476 -121.7480 201° Southwest 290 334 10,100 -960 Descending FlightAware ADS-B
04:43PM 47.8732 -121.7201 196° South 288 331 10,000 -960 Descending FlightAware ADS-B (CYVR)
04:43PM 47.8311 -121.7560 196° South 287 330 9,900 -1,200 Descending FlightAware ADS-B
04:43PM 47.8120 -121.7630 195° South 285 328 9,600 -1,500 Descending FlightAware ADS-B
04:43PM 47.7931 -121.7710 196° South 286 329 9,200 -1,620 Descending FlightAware ADS-B
04:43PM 47.7794 -121.7769 196° South 285 328 9,000 -1,440 Descending FlightAware ADS-B
04:43PM 47.7766 -121.7780 196° South 285 328 8,900 -1,380 Descending FlightAware ADS-B
04:44PM 47.7761 -121.7783 196° South 284 327 8,600 -1,200 Descending FlightAware ADS-B (CYVR)
04:44PM 47.7577 -121.7860 196° South 283 326 8,600 -1,080 Level FlightAware ADS-B
04:44PM 47.7389 -121.7940 197° South 282 325 8,300 -1,440 Descending FlightAware ADS-B
04:44PM 47.7627 -121.7840 196° South 284 327 8,100 -1,440 Descending FlightAware ADS-B
04:44PM 47.7228 -121.8010 197° South 278 320 8,000 -1,020 Descending FlightAware ADS-B
04:44PM 47.7175 -121.8040 200° South 278 320 7,900 -1,380 Descending FlightAware ADS-B
04:44PM 47.7108 -121.8080 203° Southwest 275 316 7,800 -1,140 Descending FlightAware ADS-B
04:44PM 47.6993 -121.8160 206° Southwest 273 314 7,600 -960 Descending FlightAware ADS-B
04:44PM 47.6942 -121.8201 207° Southwest 272 313 7,600 -840 Level FlightAware ADS-B
04:45PM 47.6819 -121.8290 207° Southwest 270 311 7,400 -1,320 Descending FlightAware ADS-B
04:45PM 47.6730 -121.8360 207° Southwest 269 310 7,200 -1,620 Descending FlightAware ADS-B
04:45PM 47.6650 -121.8420 207° Southwest 268 308 7,000 -1,500 Descending FlightAware ADS-B
04:45PM 47.6552 -121.8491 206° Southwest 268 308 6,700 -1,140 Descending FlightAware ADS-B
04:45PM 47.6478 -121.8540 206° Southwest 269 310 6,700 -1,200 Level FlightAware ADS-B
04:45PM 47.6380 -121.8614 206° Southwest 269 310 6,400 -1,620 Descending FlightAware ADS-B
04:45PM 47.6301 -121.8670 206° Southwest 269 310 6,300 -1,500 Descending FlightAware ADS-B
04:46PM 47.6132 -121.8790 205° Southwest 270 311 5,900 -1,560 Descending FlightAware ADS-B
04:46PM 47.5959 -121.8910 206° Southwest 272 313 5,500 -1,380 Descending FlightAware ADS-B
04:46PM 47.5790 -121.9030 207° Southwest 271 312 5,200 -1,200 Descending FlightAware ADS-B
04:46PM 47.5619 -121.9160 207° Southwest 268 308 4,900 -1,020 Descending FlightAware ADS-B
04:47PM 47.5457 -121.9290 208° Southwest 265 305 4,700 -420 Descending FlightAware ADS-B
04:47PM 47.5296 -121.9410 208° Southwest 264 304 4,700  Level FlightAware ADS-B
04:47PM 47.5128 -121.9540 208° Southwest 264 304 4,700  Level FlightAware ADS-B
04:47PM 47.4963 -121.9670 208° Southwest 265 305 4,700  Level FlightAware ADS-B
04:48PM 47.4807 -121.9790 208° Southwest 265 305 4,700  Level FlightAware ADS-B
04:48PM 47.4630 -121.9930 208° Southwest 267 307 4,700  Level FlightAware ADS-B
04:48PM 47.4461 -122.0060 207° Southwest 267 307 4,700  Level FlightAware ADS-B
04:49PM 47.4296 -122.0180 207° Southwest 267 307 4,700 -240 Level FlightAware ADS-B
04:49PM 47.4121 -122.0320 207° Southwest 265 305 4,600 -780 Descending FlightAware ADS-B
04:49PM 47.3953 -122.0440 207° Southwest 265 305 4,300 -1,140 Descending FlightAware ADS-B
04:49PM 47.3883 -122.0500 208° Southwest 265 305 4,200 -720 Descending FlightAware ADS-B
04:49PM 47.3850 -122.0530 211° Southwest 265 305 4,200 -1,020 Level FlightAware ADS-B
04:49PM 47.3819 -122.0560 215° Southwest 264 304 4,100 -1,020 Descending FlightAware ADS-B
04:49PM 47.3791 -122.0590 220° Southwest 264 304 4,100 -900 Level FlightAware ADS-B
04:49PM 47.3758 -122.0640 227° Southwest 263 303 4,000 -1,380 Descending FlightAware ADS-B
04:49PM 47.3717 -122.0710 232° Southwest 262 302 3,900 -1,140 Descending FlightAware ADS-B
04:50PM 47.3671 -122.0800 234° Southwest 259 298 3,800 -960 Descending FlightAware ADS-B
04:50PM 47.3586 -122.0990 236° Southwest 252 290 3,600 -720 Descending FlightAware ADS-B
04:50PM 47.3497 -122.1180 236° Southwest 242 278 3,500 -600 Descending FlightAware ADS-B
04:50PM 47.3460 -122.1260 237° Southwest 238 274 3,400 -1,200 Descending FlightAware ADS-B
04:50PM 47.3434 -122.1330 241° Southwest 234 269 3,300 -1,500 Descending FlightAware ADS-B
04:50PM 47.3416 -122.1390 248° West 230 265 3,200 -780 Descending FlightAware ADS-B
04:50PM 47.3406 -122.1430 254° West 227 261 3,200 -900 Level FlightAware ADS-B
04:50PM 47.3401 -122.1490 265° West 223 257 3,100 -900 Descending FlightAware ADS-B
04:50PM 47.3401 -122.1540 272° West 220 253 3,100 -780 Level FlightAware ADS-B
04:50PM 47.3409 -122.1600 283° West 215 247 3,000 -900 Descending FlightAware ADS-B
04:51PM 47.3420 -122.1640 292° West 212 244 3,000 -900 Level FlightAware ADS-B
04:51PM 47.3441 -122.1690 303° West 207 238 2,900 -900 Descending FlightAware ADS-B
04:51PM 47.3462 -122.1720 316° Northwest 203 234 2,900 -780 Level FlightAware ADS-B
04:51PM 47.3499 -122.1760 327° Northwest 200 230 2,800 -1,500 Descending FlightAware ADS-B
04:51PM 47.3526 -122.1780 337° Northwest 198 228 2,700 -900 Descending FlightAware ADS-B
04:51PM 47.3556 -122.1790 350° North 194 223 2,700  Level FlightAware ADS-B
04:51PM 47.3588 -122.1790 North 189 217 2,700  Level FlightAware ADS-B
04:51PM 47.3630 -122.1780 North 183 211 2,700  Level FlightAware ADS-B
04:51PM 47.3681 -122.1770 10° North 183 211 2,700  Level FlightAware ADS-B
04:51PM 47.3707 -122.1760 North 184 212 2,700  Level FlightAware ADS-B
04:51PM 47.3736 -122.1760 359° North 183 211 2,700  Level FlightAware ADS-B
04:51PM 47.3763 -122.1770 350° North 184 212 2,700  Level FlightAware ADS-B
04:51PM 47.3790 -122.1780 345° North 184 212 2,700  Level FlightAware ADS-B
04:51PM 47.3823 -122.1800 340° North 184 212 2,700  Level FlightAware ADS-B
04:51PM 47.3848 -122.1810 337° Northwest 184 212 2,700  Level FlightAware ADS-B
04:52PM 47.3894 -122.1850 333° Northwest 184 212 2,700  Level FlightAware ADS-B
04:52PM 47.3973 -122.1910 331° Northwest 173 199 2,700 -240 Level FlightAware ADS-B
04:52PM 47.4074 -122.1990 331° Northwest 159 183 2,600 -300 Descending FlightAware ADS-B
04:52PM 47.4114 -122.2020 330° Northwest 156 180 2,600 -960 Level FlightAware ADS-B
04:52PM 47.4157 -122.2060 330° Northwest 154 177 2,400 -1,200 Descending FlightAware ADS-B
04:52PM 47.4205 -122.2100 330° Northwest 148 170 2,300 -720 Descending FlightAware ADS-B
04:52PM 47.4261 -122.2150 330° Northwest 146 168 2,200 -960 Descending FlightAware ADS-B
04:53PM 47.4348 -122.2220 330° Northwest 144 166 1,900 -1,260 Descending FlightAware ADS-B
04:53PM 47.4433 -122.2290 330° Northwest 144 166 1,600 -1,320 Descending FlightAware ADS-B
04:53PM 47.4485 -122.2340 331° Northwest 142 163 1,400 -1,260 Descending FlightAware ADS-B
04:53PM 47.4570 -122.2410 331° Northwest 140 161 1,100 -1,080 Descending FlightAware ADS-B
04:54PM 47.4641 -122.2470 330° Northwest 139 160 900 -960 Descending FlightAware ADS-B
04:54PM 47.4711 -122.2530 331° Northwest 136 157 700 -720 Descending FlightAware ADS-B
04:54PM 47.4786 -122.2590 329° Northwest 137 158 600 -420 Descending FlightAware ADS-B
04:55PM 47.5092 -122.2861 329° Northwest 135 155 200 15,480 Descending Seattle Center
04:56PM 47.5458 -122.3142 333° Northwest 137 158 36,000 32,040 Climbing Seattle Center
04:58PM 47.5300 -122.3020 91° East  Level Estimated